Time;durP1;ratioP1;P1;durP2;ratioP2;P2;SDS_P1;SDS_P2;PMS_P1;PMS_P2;Temp;Humidity;BMP_temperature;BMP_pressure;BME280_temperature;BME280_humidity;BME280_pressure;Samples;Min_cycle;Max_cycle;Signal;HPM_P1;HPM_P2
2023/08/01 00:00:45;;;;;;;;;;;;;;;19.59;43.62;99469.41;4893724;28;98448;-72
2023/08/01 00:03:13;;;;;;;;;;;;;;;19.52;43.76;99458.28;4871883;28;99859;-73
2023/08/01 00:05:44;;;;;;;;;;;;;;;19.48;43.66;99456.63;4890438;28;98010;-72
2023/08/01 00:08:13;;;;;;;;;;;;;;;19.43;43.93;99443.22;4887704;28;98403;-73
2023/08/01 00:10:41;;;;;;;;;;;;;;;19.37;43.71;99443.50;4871914;28;100902;-73
2023/08/01 00:13:08;;;;;;;;;;;;;;;19.33;43.90;99439.06;4911283;28;98445;-73
2023/08/01 00:15:35;;;;;;;;;;;;;;;19.31;43.70;99441.38;4890720;28;100345;-72
2023/08/01 00:18:01;;;;;;;;;;;;;;;19.26;43.81;99431.50;4870566;28;98386;-73
2023/08/01 00:20:28;;;;;;;;;;;;;;;19.24;43.73;99425.56;4892482;28;97979;-73
2023/08/01 00:22:55;;;;;;;;;;;;;;;19.23;43.91;99423.19;4885156;28;98885;-73
2023/08/01 00:25:24;;;;;;;;;;;;;;;19.20;43.90;99419.22;4895019;28;98450;-72
2023/08/01 00:27:53;;;;;;;;;;;;;;;19.20;43.95;99412.97;4883813;28;98190;-73
2023/08/01 00:30:20;;;;;;;;;;;;;;;19.19;43.97;99411.38;4909664;28;98500;-72
2023/08/01 00:32:47;;;;;;;;;;;;;;;19.15;43.80;99405.81;4893484;28;98166;-73
2023/08/01 00:35:13;;;;;;;;;;;;;;;19.12;43.96;99401.06;4876297;28;98073;-72
2023/08/01 00:37:41;;;;;;;;;;;;;;;19.11;44.02;99391.28;4888687;28;100663;-74
2023/08/01 00:40:08;;;;;;;;;;;;;;;19.08;43.79;99390.03;4890562;28;97982;-72
2023/08/01 00:42:37;;;;;;;;;;;;;;;19.07;43.82;99390.41;4912839;28;98194;-73
2023/08/01 00:45:05;;;;;;;;;;;;;;;19.06;43.87;99383.31;4901922;28;98100;-74
2023/08/01 00:47:33;;;;;;;;;;;;;;;19.04;43.92;99377.44;4875309;28;97901;-74
2023/08/01 00:50:00;;;;;;;;;;;;;;;19.03;44.04;99362.19;4893080;28;98106;-72
2023/08/01 00:52:27;;;;;;;;;;;;;;;19.02;43.87;99360.59;4873697;28;97944;-74
2023/08/01 00:54:58;;;;;;;;;;;;;;;19.01;44.03;99356.28;4891926;28;97947;-71
2023/08/01 00:57:26;;;;;;;;;;;;;;;18.97;44.00;99352.66;4891176;28;97859;-72
2023/08/01 00:59:55;;;;;;;;;;;;;;;18.94;43.99;99350.63;4891529;28;98315;-72
2023/08/01 01:02:23;;;;;;;;;;;;;;;18.91;44.01;99343.94;4878455;28;98466;-72
2023/08/01 01:04:49;;;;;;;;;;;;;;;18.89;43.99;99341.56;4905792;28;98977;-76
2023/08/01 01:07:16;;;;;;;;;;;;;;;18.84;44.17;99349.22;4886540;28;98331;-75
2023/08/01 01:09:43;;;;;;;;;;;;;;;18.76;43.97;99337.31;4883016;28;100263;-75
2023/08/01 01:12:10;;;;;;;;;;;;;;;18.72;44.06;99335.63;4886347;28;98315;-75
2023/08/01 01:14:37;;;;;;;;;;;;;;;18.67;44.23;99323.00;4874817;28;99053;-75
2023/08/01 01:17:04;;;;;;;;;;;;;;;18.61;44.19;99324.38;4894580;28;97989;-71
2023/08/01 01:19:31;;;;;;;;;;;;;;;18.54;44.09;99316.78;4907009;28;99218;-72
2023/08/01 01:21:58;;;;;;;;;;;;;;;18.48;44.40;99307.28;4893875;28;97765;-71
2023/08/01 01:24:25;;;;;;;;;;;;;;;18.43;44.39;99302.09;4889707;28;97932;-74
2023/08/01 01:26:53;;;;;;;;;;;;;;;18.38;44.24;99308.56;4874075;28;99501;-72
2023/08/01 01:29:20;;;;;;;;;;;;;;;18.35;44.22;99308.47;4904467;28;98410;-75
2023/08/01 01:31:47;;;;;;;;;;;;;;;18.33;44.22;99297.13;4875130;28;99182;-75
2023/08/01 01:34:14;;;;;;;;;;;;;;;18.31;44.45;99289.28;4867677;28;98272;-72
2023/08/01 01:36:40;;;;;;;;;;;;;;;18.29;44.36;99283.38;4892865;28;98056;-75
2023/08/01 01:39:09;;;;;;;;;;;;;;;18.27;44.52;99277.47;4909580;28;99400;-74
2023/08/01 01:41:36;;;;;;;;;;;;;;;18.24;44.71;99289.09;4890548;28;99230;-72
2023/08/01 01:44:04;;;;;;;;;;;;;;;18.21;44.46;99288.97;4885340;28;98517;-72
2023/08/01 01:46:32;;;;;;;;;;;;;;;18.18;44.69;99273.31;4876132;28;98164;-74
2023/08/01 01:48:59;;;;;;;;;;;;;;;18.15;44.69;99270.13;4889032;28;99934;-75
2023/08/01 01:51:28;;;;;;;;;;;;;;;18.13;44.75;99271.63;4875782;28;99760;-71
2023/08/01 01:53:54;;;;;;;;;;;;;;;18.13;44.77;99271.63;4871277;28;97887;-72
2023/08/01 01:56:21;;;;;;;;;;;;;;;18.11;44.58;99269.22;4905882;28;98421;-75
2023/08/01 01:58:49;;;;;;;;;;;;;;;18.11;44.76;99269.22;4890705;28;98099;-75
2023/08/01 02:01:15;;;;;;;;;;;;;;;18.10;44.77;99266.84;4900593;28;99449;-75
2023/08/01 02:03:42;;;;;;;;;;;;;;;18.10;44.61;99269.59;4876256;28;100139;-72
2023/08/01 02:06:08;;;;;;;;;;;;;;;18.11;44.70;99266.50;4904762;28;98068;-72
2023/08/01 02:08:37;;;;;;;;;;;;;;;18.13;44.67;99269.69;4907916;28;98486;-71
2023/08/01 02:11:04;;;;;;;;;;;;;;;18.12;44.63;99254.47;4906862;28;97894;-77
2023/08/01 02:13:32;;;;;;;;;;;;;;;18.13;44.61;99247.88;4892659;28;98075;-72
2023/08/01 02:15:58;;;;;;;;;;;;;;;18.13;44.55;99253.31;4888863;28;98156;-76
2023/08/01 02:18:24;;;;;;;;;;;;;;;18.13;44.66;99233.44;4890409;28;97941;-73
2023/08/01 02:20:54;;;;;;;;;;;;;;;18.12;45.29;99226.41;4901575;28;98169;-76
2023/08/01 02:23:21;;;;;;;;;;;;;;;18.09;44.83;99218.94;4903037;28;99557;-76
2023/08/01 02:25:47;;;;;;;;;;;;;;;18.08;44.96;99214.63;4875716;28;101259;-75
2023/08/01 02:28:13;;;;;;;;;;;;;;;18.05;44.75;99215.31;4908618;28;98038;-71
2023/08/01 02:30:40;;;;;;;;;;;;;;;18.03;44.91;99212.13;4910451;28;98271;-74
2023/08/01 02:33:06;;;;;;;;;;;;;;;18.03;44.80;99212.13;4889487;28;97901;-75
2023/08/01 02:35:32;;;;;;;;;;;;;;;18.00;44.85;99202.72;4893452;28;98210;-75
2023/08/01 02:37:59;;;;;;;;;;;;;;;17.99;45.01;99205.78;4871273;28;98136;-75
2023/08/01 02:40:26;;;;;;;;;;;;;;;17.97;45.33;99197.97;4894880;28;99137;-72
2023/08/01 02:42:53;;;;;;;;;;;;;;;17.95;45.15;99193.97;4893750;28;98202;-74
2023/08/01 02:45:20;;;;;;;;;;;;;;;17.93;44.95;99199.00;4887140;28;98035;-72
2023/08/01 02:47:47;;;;;;;;;;;;;;;17.90;45.46;99193.09;4874920;28;98570;-74
2023/08/01 02:50:15;;;;;;;;;;;;;;;17.86;45.33;99189.47;4886304;28;98164;-72
2023/08/01 02:52:42;;;;;;;;;;;;;;;17.85;45.07;99187.09;4909287;28;99270;-75
2023/08/01 02:55:09;;;;;;;;;;;;;;;17.84;45.08;99180.88;4887631;28;97896;-75
2023/08/01 02:57:36;;;;;;;;;;;;;;;17.83;45.29;99179.25;4889429;28;97993;-75
2023/08/01 03:00:05;;;;;;;;;;;;;;;17.84;45.29;99180.03;4895034;28;98434;-76
2023/08/01 03:02:32;;;;;;;;;;;;;;;17.82;45.54;99174.16;4924751;28;98330;-75
2023/08/01 03:04:58;;;;;;;;;;;;;;;17.81;45.59;99172.59;4905545;28;97959;-72
2023/08/01 03:07:26;;;;;;;;;;;;;;;17.80;45.38;99174.50;4874368;28;97999;-72
2023/08/01 03:09:52;;;;;;;;;;;;;;;17.78;45.64;99179.50;4911062;28;99722;-72
2023/08/01 03:12:19;;;;;;;;;;;;;;;17.77;45.25;99168.97;4911544;28;98187;-76
2023/08/01 03:14:47;;;;;;;;;;;;;;;17.77;45.33;99174.41;4878719;28;97914;-75
2023/08/01 03:17:13;;;;;;;;;;;;;;;17.76;45.22;99170.88;4925803;28;98606;-76
2023/08/01 03:19:39;;;;;;;;;;;;;;;17.76;45.40;99176.31;4911641;28;97904;-72
2023/08/01 03:22:07;;;;;;;;;;;;;;;17.77;45.34;99167.03;4893509;28;98103;-76
2023/08/01 03:24:34;;;;;;;;;;;;;;;17.78;45.53;99162.38;4893101;28;98187;-71
2023/08/01 03:27:02;;;;;;;;;;;;;;;17.77;45.47;99164.31;4886479;28;99023;-72
2023/08/01 03:29:30;;;;;;;;;;;;;;;17.76;45.38;99151.78;4878175;28;98090;-72
2023/08/01 03:31:57;;;;;;;;;;;;;;;17.73;45.53;99155.19;4888105;28;99114;-76
2023/08/01 03:34:26;;;;;;;;;;;;;;;17.71;45.36;99143.06;4889355;28;98419;-71
2023/08/01 03:36:53;;;;;;;;;;;;;;;17.73;45.21;99135.34;4904753;28;98861;-76
2023/08/01 03:39:20;;;;;;;;;;;;;;;17.73;45.28;99136.13;4888759;28;97998;-76
2023/08/01 03:41:47;;;;;;;;;;;;;;;17.75;45.38;99128.41;4889774;28;97855;-74
2023/08/01 03:44:15;;;;;;;;;;;;;;;17.75;45.37;99122.19;4878730;28;98065;-75
2023/08/01 03:46:42;;;;;;;;;;;;;;;17.75;45.42;99122.19;4897154;28;98382;-76
2023/08/01 03:49:09;;;;;;;;;;;;;;;17.74;45.62;99120.56;4897255;28;98102;-76
2023/08/01 03:51:35;;;;;;;;;;;;;;;17.73;45.60;99113.53;4872794;28;99081;-76
2023/08/01 03:54:01;;;;;;;;;;;;;;;17.71;45.36;99111.16;4890895;28;98141;-76
2023/08/01 03:56:28;;;;;;;;;;;;;;;17.72;45.36;99115.44;4894371;28;97976;-72
2023/08/01 03:58:55;;;;;;;;;;;;;;;17.75;45.34;99111.28;4909513;28;99385;-75
2023/08/01 04:01:22;;;;;;;;;;;;;;;17.78;45.40;99121.50;4889821;28;98104;-76
2023/08/01 04:03:48;;;;;;;;;;;;;;;17.78;45.23;99108.66;4894301;28;98935;-76
2023/08/01 04:06:15;;;;;;;;;;;;;;;17.83;45.36;99104.88;4892147;28;98001;-75
2023/08/01 04:08:43;;;;;;;;;;;;;;;17.85;45.14;99097.94;4894158;28;98223;-72
2023/08/01 04:11:11;;;;;;;;;;;;;;;17.89;45.20;99098.06;4876154;28;98263;-72
2023/08/01 04:13:39;;;;;;;;;;;;;;;17.93;45.16;99106.31;4873784;28;98146;-72
2023/08/01 04:16:05;;;;;;;;;;;;;;;17.94;45.17;99099.72;4890658;28;99029;-72
2023/08/01 04:18:32;;;;;;;;;;;;;;;17.95;45.18;99090.41;4908487;28;98105;-76
2023/08/01 04:20:58;;;;;;;;;;;;;;;17.94;45.17;99094.28;4892215;28;99589;-76
2023/08/01 04:23:25;;;;;;;;;;;;;;;17.92;45.24;99081.00;4910048;28;99297;-75
2023/08/01 04:25:51;;;;;;;;;;;;;;;17.92;45.23;99081.00;4909011;28;98318;-76
2023/08/01 04:28:18;;;;;;;;;;;;;;;17.91;45.33;99073.94;4889319;28;98142;-71
2023/08/01 04:30:50;;;;;;;;;;;;;;;17.91;45.37;99073.94;4888659;28;98195;-72
2023/08/01 04:33:17;;;;;;;;;;;;;;;17.90;45.32;99070.44;4871077;28;98354;-72
2023/08/01 04:35:43;;;;;;;;;;;;;;;17.91;45.44;99063.03;4893774;28;98223;-72
2023/08/01 04:38:13;;;;;;;;;;;;;;;17.91;45.38;99055.66;4890002;28;97797;-75
2023/08/01 04:40:39;;;;;;;;;;;;;;;17.93;45.17;99057.25;4894586;28;98049;-74
2023/08/01 04:43:06;;;;;;;;;;;;;;;17.94;45.37;99056.91;4888438;28;97982;-75
2023/08/01 04:45:33;;;;;;;;;;;;;;;17.95;45.35;99053.03;4891904;28;98061;-72
2023/08/01 04:48:00;;;;;;;;;;;;;;;17.97;45.22;99044.50;4902723;28;98038;-72
2023/08/01 04:50:27;;;;;;;;;;;;;;;18.00;45.45;99051.97;4903989;28;98247;-71
2023/08/01 04:52:55;;;;;;;;;;;;;;;18.02;45.23;99044.25;4890584;28;97998;-72
2023/08/01 04:55:22;;;;;;;;;;;;;;;18.04;45.11;99040.03;4870736;28;98099;-72
2023/08/01 04:57:51;;;;;;;;;;;;;;;18.06;45.32;99032.28;4905062;28;99278;-72
2023/08/01 05:00:18;;;;;;;;;;;;;;;18.09;45.05;99030.78;4905772;28;98341;-72
2023/08/01 05:02:45;;;;;;;;;;;;;;;18.12;45.15;99024.66;4908934;28;98222;-74
2023/08/01 05:05:12;;;;;;;;;;;;;;;18.13;45.34;99035.19;4895737;28;98306;-75
2023/08/01 05:07:38;;;;;;;;;;;;;;;18.14;45.16;99027.78;4894129;28;99228;-71
2023/08/01 05:10:06;;;;;;;;;;;;;;;18.13;45.21;99027.00;4911691;28;97973;-73
2023/08/01 05:12:33;;;;;;;;;;;;;;;18.14;45.21;99025.06;4893451;28;97978;-73
2023/08/01 05:15:00;;;;;;;;;;;;;;;18.17;45.08;99021.66;4901568;28;98162;-72
2023/08/01 05:17:28;;;;;;;;;;;;;;;18.17;45.30;99018.91;4921756;28;98526;-73
2023/08/01 05:19:55;;;;;;;;;;;;;;;18.17;45.16;99018.13;4907135;28;98001;-75
2023/08/01 05:22:22;;;;;;;;;;;;;;;18.17;45.24;99012.69;4871747;28;98295;-72
2023/08/01 05:24:49;;;;;;;;;;;;;;;18.12;45.45;99000.09;4866239;28;103003;-71
2023/08/01 05:27:18;;;;;;;;;;;;;;;18.13;45.19;99005.19;4883658;28;98897;-72
2023/08/01 05:29:45;;;;;;;;;;;;;;;18.14;45.34;99006.78;4898370;28;98297;-75
2023/08/01 05:32:11;;;;;;;;;;;;;;;18.13;45.41;98996.22;4871909;28;98129;-75
2023/08/01 05:34:39;;;;;;;;;;;;;;;18.12;45.27;99005.56;4884962;28;98352;-72
2023/08/01 05:37:06;;;;;;;;;;;;;;;18.10;45.24;99008.63;4881340;28;98599;-71
2023/08/01 05:39:32;;;;;;;;;;;;;;;18.10;45.27;99000.44;4870040;28;98079;-75
2023/08/01 05:41:59;;;;;;;;;;;;;;;18.13;45.41;98997.03;4868004;28;100061;-76
2023/08/01 05:44:25;;;;;;;;;;;;;;;18.18;45.36;98995.94;4878111;28;98524;-76
2023/08/01 05:46:52;;;;;;;;;;;;;;;18.20;45.26;98996.41;4887499;28;98188;-76
2023/08/01 05:49:19;;;;;;;;;;;;;;;18.21;45.07;98989.81;4868960;28;98134;-71
2023/08/01 05:51:47;;;;;;;;;;;;;;;18.28;45.29;98991.91;4873985;28;98404;-75
2023/08/01 05:54:13;;;;;;;;;;;;;;;18.34;45.34;98991.28;4891619;28;98306;-71
2023/08/01 05:56:40;;;;;;;;;;;;;;;18.38;45.34;98983.97;4887324;28;98247;-74
2023/08/01 05:59:06;;;;;;;;;;;;;;;18.40;45.00;98975.44;4865474;28;97985;-70
2023/08/01 06:01:33;;;;;;;;;;;;;;;18.42;45.31;98970.41;4903897;28;98423;-75
2023/08/01 06:04:00;;;;;;;;;;;;;;;18.45;45.15;98969.69;4902647;28;98602;-75
2023/08/01 06:06:27;;;;;;;;;;;;;;;18.48;45.14;98962.75;4903406;28;98266;-75
2023/08/01 06:08:54;;;;;;;;;;;;;;;18.51;45.17;98962.84;4900356;28;98249;-72
2023/08/01 06:11:21;;;;;;;;;;;;;;;18.52;45.09;98964.41;4887502;28;98078;-76
2023/08/01 06:13:47;;;;;;;;;;;;;;;18.55;45.19;98954.69;4901498;28;98857;-76
2023/08/01 06:16:14;;;;;;;;;;;;;;;18.61;45.13;98958.75;4887554;28;98263;-76
2023/08/01 06:18:40;;;;;;;;;;;;;;;18.62;45.12;98949.41;4867486;28;98049;-74
2023/08/01 06:21:07;;;;;;;;;;;;;;;18.61;45.37;98950.56;4866725;28;98367;-76
2023/08/01 06:23:33;;;;;;;;;;;;;;;18.60;45.30;98944.31;4901310;28;98494;-75
2023/08/01 06:26:01;;;;;;;;;;;;;;;18.56;45.65;98945.38;4883578;28;98256;-76
2023/08/01 06:28:27;;;;;;;;;;;;;;;18.50;45.72;98939.41;4901186;28;98103;-76
2023/08/01 06:30:54;;;;;;;;;;;;;;;18.51;45.84;98946.47;4903116;28;98014;-73
2023/08/01 06:33:21;;;;;;;;;;;;;;;18.51;45.84;98938.28;4889652;28;99025;-71
2023/08/01 06:35:47;;;;;;;;;;;;;;;18.52;45.73;98939.84;4887815;28;98357;-76
2023/08/01 06:38:14;;;;;;;;;;;;;;;18.52;45.65;98941.78;4876633;28;98141;-76
2023/08/01 06:40:40;;;;;;;;;;;;;;;18.50;45.68;98936.69;4874130;28;98323;-77
2023/08/01 06:43:07;;;;;;;;;;;;;;;18.51;45.53;98930.09;4890175;28;97950;-76
2023/08/01 06:45:34;;;;;;;;;;;;;;;18.58;45.68;98934.91;4894338;28;98618;-71
2023/08/01 06:48:01;;;;;;;;;;;;;;;18.65;45.45;98933.09;4889268;28;98390;-71
2023/08/01 06:50:27;;;;;;;;;;;;;;;18.77;45.59;98936.88;4922444;28;97970;-70
2023/08/01 06:52:54;;;;;;;;;;;;;;;18.85;45.37;98930.44;4887013;28;98089;-72
2023/08/01 06:55:21;;;;;;;;;;;;;;;18.92;45.52;98937.97;4887977;28;98284;-77
2023/08/01 06:57:48;;;;;;;;;;;;;;;18.94;45.09;98935.66;4908963;28;98154;-72
2023/08/01 07:00:15;;;;;;;;;;;;;;;19.00;45.57;98939.69;4870624;28;98488;-77
2023/08/01 07:02:41;;;;;;;;;;;;;;;19.07;45.37;98937.91;4908803;28;98437;-71
2023/08/01 07:05:08;;;;;;;;;;;;;;;19.13;45.42;98930.97;4890258;28;98453;-77
2023/08/01 07:07:34;;;;;;;;;;;;;;;19.20;45.39;98926.81;4888561;28;98094;-71
2023/08/01 07:10:00;;;;;;;;;;;;;;;19.26;45.50;98928.91;4867515;28;98564;-71
2023/08/01 07:12:27;;;;;;;;;;;;;;;19.28;45.68;98926.56;4870793;28;98426;-71
2023/08/01 07:14:54;;;;;;;;;;;;;;;19.23;45.54;98921.41;4902307;28;98202;-78
2023/08/01 07:17:20;;;;;;;;;;;;;;;19.24;45.54;98935.88;4868015;28;98835;-71
2023/08/01 07:19:47;;;;;;;;;;;;;;;19.27;45.54;98933.19;4905466;28;98810;-78
2023/08/01 07:22:14;;;;;;;;;;;;;;;19.36;45.25;98933.75;4889202;28;98168;-72
2023/08/01 07:24:40;;;;;;;;;;;;;;;19.42;45.22;98925.28;4900203;28;103046;-77
2023/08/01 07:27:07;;;;;;;;;;;;;;;19.44;45.49;98925.69;4904029;28;101751;-78
2023/08/01 07:29:33;;;;;;;;;;;;;;;19.50;45.27;98935.97;4891174;28;98092;-78
2023/08/01 07:32:00;;;;;;;;;;;;;;;19.52;45.23;98930.91;4884493;28;98491;-77
2023/08/01 07:34:27;;;;;;;;;;;;;;;19.48;45.33;98930.06;4870664;28;98524;-77
2023/08/01 07:36:54;;;;;;;;;;;;;;;19.36;45.68;98930.22;4883676;28;98062;-70
2023/08/01 07:39:21;;;;;;;;;;;;;;;19.32;45.69;98932.09;4872376;28;101573;-78
2023/08/01 07:41:48;;;;;;;;;;;;;;;19.33;45.63;98931.72;4889015;28;99751;-78
2023/08/01 07:44:14;;;;;;;;;;;;;;;19.42;45.73;98933.47;4873773;28;98217;-70
2023/08/01 07:46:41;;;;;;;;;;;;;;;19.53;45.44;98935.25;4886466;28;101988;-78
2023/08/01 07:49:08;;;;;;;;;;;;;;;19.65;45.16;98926.09;4891001;28;98581;-79
2023/08/01 07:51:36;;;;;;;;;;;;;;;19.71;45.48;98923.84;4903989;28;97911;-71
2023/08/01 07:54:02;;;;;;;;;;;;;;;19.76;45.29;98929.00;4875862;28;98102;-79
2023/08/01 07:56:29;;;;;;;;;;;;;;;19.85;45.03;98924.88;4869244;28;99209;-71
2023/08/01 07:58:55;;;;;;;;;;;;;;;19.94;45.10;98919.16;4902270;28;97981;-77
2023/08/01 08:01:22;;;;;;;;;;;;;;;20.11;44.86;98915.09;4900964;28;98222;-80
2023/08/01 08:03:49;;;;;;;;;;;;;;;20.45;44.61;98918.72;4885090;28;99257;-77
2023/08/01 08:06:16;;;;;;;;;;;;;;;20.93;43.96;98918.16;4886525;28;98448;-72
2023/08/01 08:08:43;;;;;;;;;;;;;;;21.20;43.92;98911.44;4898685;28;98477;-71
2023/08/01 08:11:09;;;;;;;;;;;;;;;21.41;43.89;98910.88;4903698;28;98054;-76
2023/08/01 08:13:36;;;;;;;;;;;;;;;21.54;43.81;98905.94;4903868;28;97980;-76
2023/08/01 08:16:04;;;;;;;;;;;;;;;21.65;43.80;98911.47;4899192;28;98313;-72
2023/08/01 08:18:31;;;;;;;;;;;;;;;21.72;43.83;98917.81;4902299;28;98384;-78
2023/08/01 08:20:59;;;;;;;;;;;;;;;21.83;43.87;98906.94;4886427;28;98247;-72
2023/08/01 08:23:27;;;;;;;;;;;;;;;22.00;43.73;98905.50;4898681;28;97926;-72
2023/08/01 08:25:54;;;;;;;;;;;;;;;22.28;43.34;98899.44;4899886;28;98005;-72
2023/08/01 08:28:30;;;;;;;;;;;;;;;22.50;43.38;98903.09;4879113;28;98095;-79
2023/08/01 08:30:57;;;;;;;;;;;;;;;22.67;43.46;98907.88;4901684;28;98478;-76
2023/08/01 08:33:24;;;;;;;;;;;;;;;22.87;43.07;98888.31;4884813;28;97919;-73
2023/08/01 08:35:50;;;;;;;;;;;;;;;23.20;42.90;98892.78;4886204;28;99154;-75
2023/08/01 08:38:18;;;;;;;;;;;;;;;23.55;42.65;98883.78;4886273;28;100798;-72
2023/08/01 08:40:52;;;;;;;;;;;;;;;24.25;42.21;98881.41;4885471;28;99164;-76
2023/08/01 08:43:20;;;;;;;;;;;;;;;24.52;41.88;98881.72;4850678;28;98581;-72
2023/08/01 08:45:49;;;;;;;;;;;;;;;24.42;42.61;98894.34;4884086;28;98191;-73
2023/08/01 08:48:17;;;;;;;;;;;;;;;24.46;42.75;98883.31;4887935;28;98505;-73
2023/08/01 08:50:44;;;;;;;;;;;;;;;24.53;42.39;98880.56;4900627;28;98258;-72
2023/08/01 08:53:12;;;;;;;;;;;;;;;24.56;42.73;98865.97;4872435;28;99409;-76
2023/08/01 08:55:40;;;;;;;;;;;;;;;24.59;42.65;98870.66;4887265;28;98352;-72
2023/08/01 08:58:07;;;;;;;;;;;;;;;24.73;42.58;98864.34;4884247;28;99785;-75
2023/08/01 09:00:33;;;;;;;;;;;;;;;25.04;42.20;98861.81;4873542;28;98113;-73
2023/08/01 09:03:01;;;;;;;;;;;;;;;25.61;41.83;98858.66;4898413;28;98873;-75
2023/08/01 09:05:28;;;;;;;;;;;;;;;26.94;40.35;98858.81;4899227;28;98200;-74
2023/08/01 09:07:56;;;;;;;;;;;;;;;27.64;39.97;98850.66;4897320;28;98093;-73
2023/08/01 09:10:22;;;;;;;;;;;;;;;28.17;39.80;98850.94;4879285;28;98073;-77
2023/08/01 09:12:49;;;;;;;;;;;;;;;29.35;38.90;98840.91;4902816;28;98839;-73
2023/08/01 09:15:17;;;;;;;;;;;;;;;30.42;38.43;98834.63;4886659;28;98076;-73
2023/08/01 09:18:00;;;;;;;;;;;;;;;30.85;38.54;98833.38;4903469;28;98633;-73
2023/08/01 09:20:29;;;;;;;;;;;;;;;31.18;38.33;98824.81;4898315;28;98517;-77
2023/08/01 09:22:56;;;;;;;;;;;;;;;32.81;36.72;98823.09;4898836;28;99706;-75
2023/08/01 09:25:33;;;;;;;;;;;;;;;33.46;36.94;98805.38;4896069;28;98744;-73
2023/08/01 09:27:59;;;;;;;;;;;;;;;33.30;37.21;98805.63;4898424;28;98034;-76
2023/08/01 09:30:28;;;;;;;;;;;;;;;33.20;37.72;98785.28;4880231;28;98301;-75
2023/08/01 09:32:57;;;;;;;;;;;;;;;33.14;38.03;98778.78;4884128;28;98130;-76
2023/08/01 09:35:24;;;;;;;;;;;;;;;32.87;38.59;98784.25;4890235;28;98335;-76
2023/08/01 09:37:50;;;;;;;;;;;;;;;32.40;39.65;98788.03;4887049;28;98059;-72
2023/08/01 09:40:16;;;;;;;;;;;;;;;31.53;40.18;98812.53;4881950;28;98029;-75
2023/08/01 09:42:44;;;;;;;;;;;;;;;30.62;41.48;98847.56;4867940;28;98497;-76
2023/08/01 09:45:16;;;;;;;;;;;;;;;29.74;42.31;98864.16;4900086;28;98034;-75
2023/08/01 09:47:44;;;;;;;;;;;;;;;29.00;42.48;98853.63;4883832;28;99201;-73
2023/08/01 09:50:11;;;;;;;;;;;;;;;28.53;42.87;98862.13;4884271;28;98551;-75
2023/08/01 09:52:37;;;;;;;;;;;;;;;28.15;43.31;98881.03;4887614;28;99744;-74
2023/08/01 09:55:04;;;;;;;;;;;;;;;27.88;43.01;98873.59;4900250;28;98097;-74
2023/08/01 09:57:34;;;;;;;;;;;;;;;27.68;43.26;98878.28;4884603;28;100566;-73
2023/08/01 10:00:01;;;;;;;;;;;;;;;27.53;43.09;98874.19;4903001;28;97885;-72
2023/08/01 10:02:31;;;;;;;;;;;;;;;27.44;43.07;98869.19;4883435;28;100952;-73
2023/08/01 10:04:58;;;;;;;;;;;;;;;27.31;43.08;98860.69;4902267;28;98174;-75
2023/08/01 10:07:30;;;;;;;;;;;;;;;27.14;43.07;98850.66;4888945;28;98451;-73
2023/08/01 10:09:58;;;;;;;;;;;;;;;26.93;43.26;98857.25;4887398;28;98244;-73
2023/08/01 10:12:28;;;;;;;;;;;;;;;26.74;43.35;98855.94;4902531;28;98648;-74
2023/08/01 10:15:01;;;;;;;;;;;;;;;26.56;43.58;98860.91;4906555;28;98130;-73
2023/08/01 10:17:30;;;;;;;;;;;;;;;26.39;43.52;98854.38;4887633;28;100853;-74
2023/08/01 10:19:57;;;;;;;;;;;;;;;26.34;43.32;98860.34;4894077;28;99151;-74
2023/08/01 10:22:27;;;;;;;;;;;;;;;26.47;43.18;98850.34;4869541;28;97845;-73
2023/08/01 10:24:53;;;;;;;;;;;;;;;26.63;43.07;98872.66;4913258;28;98264;-74
2023/08/01 10:27:20;;;;;;;;;;;;;;;26.41;43.35;98874.88;4903841;28;98067;-73
2023/08/01 10:29:59;;;;;;;;;;;;;;;26.59;42.99;98869.13;4906400;28;98647;-74
2023/08/01 10:32:39;;;;;;;;;;;;;;;26.72;42.91;98872.13;4867224;28;98048;-73
2023/08/01 10:35:07;;;;;;;;;;;;;;;26.70;42.73;98871.00;4874063;28;98144;-74
2023/08/01 10:37:43;;;;;;;;;;;;;;;26.77;42.94;98868.94;4885927;28;97980;-74
2023/08/01 10:40:10;;;;;;;;;;;;;;;26.77;42.82;98857.88;4875672;28;98163;-73
2023/08/01 10:42:44;;;;;;;;;;;;;;;26.59;43.06;98865.59;4889685;28;98310;-74
2023/08/01 10:45:27;;;;;;;;;;;;;;;26.42;43.09;98865.38;4887882;28;98152;-75
2023/08/01 10:47:54;;;;;;;;;;;;;;;26.27;43.40;98877.78;4869956;28;100546;-74
2023/08/01 10:50:23;;;;;;;;;;;;;;;26.11;43.51;98878.34;4878397;28;99514;-72
2023/08/01 10:52:51;;;;;;;;;;;;;;;25.90;43.58;98892.34;4864388;28;98238;-74
2023/08/01 10:55:17;;;;;;;;;;;;;;;25.71;43.68;98880.66;4879255;28;98519;-73
2023/08/01 10:57:50;;;;;;;;;;;;;;;25.54;43.91;98872.50;4869004;28;99905;-77
2023/08/01 11:00:19;;;;;;;;;;;;;;;25.55;43.55;98871.34;4885191;28;98265;-74
2023/08/01 11:02:51;;;;;;;;;;;;;;;25.59;43.63;98864.59;4866058;28;98221;-74
2023/08/01 11:05:19;;;;;;;;;;;;;;;25.51;43.44;98863.09;4902425;28;99069;-74
2023/08/01 11:07:55;;;;;;;;;;;;;;;25.32;43.64;98860.88;4871388;28;98237;-73
2023/08/01 11:10:27;;;;;;;;;;;;;;;25.36;43.79;98856.88;4881578;28;98340;-73
2023/08/01 11:12:55;;;;;;;;;;;;;;;25.53;43.33;98848.88;4902963;28;98977;-73
2023/08/01 11:15:22;;;;;;;;;;;;;;;25.67;43.02;98851.53;4917506;28;99626;-73
2023/08/01 11:17:51;;;;;;;;;;;;;;;25.73;43.07;98854.63;4870701;28;99387;-74
2023/08/01 11:20:19;;;;;;;;;;;;;;;25.94;42.74;98857.22;4883416;28;98024;-74
2023/08/01 11:23:00;;;;;;;;;;;;;;;26.22;42.30;98861.66;4875926;28;98304;-73
2023/08/01 11:25:33;;;;;;;;;;;;;;;26.20;42.71;98872.31;4871261;28;98156;-74
2023/08/01 11:28:06;;;;;;;;;;;;;;;26.23;42.62;98865.19;4905469;28;99766;-74
2023/08/01 11:30:33;;;;;;;;;;;;;;;26.16;42.83;98882.63;4892590;28;98363;-73
2023/08/01 11:33:02;;;;;;;;;;;;;;;25.91;43.21;98889.16;4880972;28;98780;-73
2023/08/01 11:35:29;;;;;;;;;;;;;;;25.46;43.54;98894.63;4873253;28;98981;-72
2023/08/01 11:37:56;;;;;;;;;;;;;;;25.12;43.60;98894.47;4892134;28;98112;-74
2023/08/01 11:40:22;;;;;;;;;;;;;;;24.93;43.83;98905.97;4899839;28;98725;-77
2023/08/01 11:42:52;;;;;;;;;;;;;;;24.78;43.91;98896.97;4903763;28;99753;-76
2023/08/01 11:45:19;;;;;;;;;;;;;;;24.70;43.80;98898.19;4873933;28;98660;-75
2023/08/01 11:47:49;;;;;;;;;;;;;;;24.49;44.03;98904.56;4891204;28;98266;-73
2023/08/01 11:50:27;;;;;;;;;;;;;;;24.41;43.85;98909.28;4886486;28;98443;-73
2023/08/01 11:52:54;;;;;;;;;;;;;;;24.29;43.95;98906.13;4879328;28;99236;-75
2023/08/01 11:55:27;;;;;;;;;;;;;;;24.14;44.03;98911.69;4887362;28;98244;-74
2023/08/01 11:57:55;;;;;;;;;;;;;;;23.89;44.30;98924.66;4870909;28;98178;-76
2023/08/01 12:00:25;;;;;;;;;;;;;;;23.60;44.38;98932.09;4883417;28;98148;-73
2023/08/01 12:03:04;;;;;;;;;;;;;;;23.36;44.64;98939.91;4922105;28;98175;-72
2023/08/01 12:05:32;;;;;;;;;;;;;;;23.22;44.89;98935.16;4873236;28;98192;-72
2023/08/01 12:08:09;;;;;;;;;;;;;;;23.08;44.86;98932.38;4889099;28;98175;-72
2023/08/01 12:10:42;;;;;;;;;;;;;;;22.93;44.71;98941.75;4012418;28;10000558;-72
2023/08/01 12:13:22;;;;;;;;;;;;;;;22.77;44.78;98945.56;4884995;28;98200;-78
2023/08/01 12:15:49;;;;;;;;;;;;;;;22.64;44.72;98941.59;4894455;28;98504;-73
2023/08/01 12:18:26;;;;;;;;;;;;;;;22.52;44.85;98939.97;4875417;28;99800;-76
2023/08/01 12:20:53;;;;;;;;;;;;;;;22.53;44.64;98935.25;4909049;28;98556;-72
2023/08/01 12:23:21;;;;;;;;;;;;;;;22.67;44.43;98929.03;4901672;28;98594;-79
2023/08/01 12:25:47;;;;;;;;;;;;;;;22.92;44.24;98938.22;4880451;28;98763;-73
2023/08/01 12:28:16;;;;;;;;;;;;;;;23.07;44.03;98927.25;4882806;28;99597;-72
2023/08/01 12:30:43;;;;;;;;;;;;;;;23.06;43.74;98922.94;4891083;28;98532;-72
2023/08/01 12:33:10;;;;;;;;;;;;;;;23.07;43.92;98910.78;4872259;28;98531;-76
2023/08/01 12:35:40;;;;;;;;;;;;;;;23.21;43.89;98914.34;4904979;28;98444;-73
2023/08/01 12:38:09;;;;;;;;;;;;;;;23.49;43.53;98919.13;4883341;28;98829;-73
2023/08/01 12:40:36;;;;;;;;;;;;;;;23.91;42.96;98914.84;4894015;28;98859;-74
2023/08/01 12:43:05;;;;;;;;;;;;;;;24.05;43.00;98919.56;4884421;28;98315;-74
2023/08/01 12:45:31;;;;;;;;;;;;;;;24.04;43.16;98928.19;4889371;28;98390;-76
2023/08/01 12:47:58;;;;;;;;;;;;;;;24.04;43.16;98926.22;4902337;28;97886;-77